KCSV/CSV METAR and TAF weather

Enter ICAO airport designator
Station Type Date Time Source
KCSV METAR 2019/08/24 08:53 UTC NOAA

KCSV 240853Z AUTO 06004KT 3/4SM BR VV002 20/19 A3010 RMK AO2 SLP168 T02000194 56006


Station Type Date Time Source
KCSV Decoded METAR 2019/08/24 08:53 UTC NOAA

Station name not available
Aug 24, 2019 - 04:53 AM EDT / 2019.08.24 0853 UTC
Wind: from the ENE (060 degrees) at 5 MPH (4 KT):0
Visibility: 3/4 mile(s):0
Sky conditions: obscured
Weather: mist
Temperature: 68.0 F (20.0 C)
Dew Point: 66.9 F (19.4 C)
Relative Humidity: 96%
Pressure (altimeter): 30.1 in. Hg (1019 hPa)
Pressure tendency: 0.02 inches (0.6 hPa) lower than three hours ago
ob: KCSV 240853Z AUTO 06004KT 3/4SM BR VV002 20/19 A3010 RMK AO2 SLP168 T02000194 56006
cycle: 9

Station Type Date Time Source
KCSV TAF 2019/08/24 06:46 UTC NOAA

TAF KCSV 240540Z 2406/2506 04005KT P6SM OVC004
FM240900 04003KT 3SM BR OVC004
FM241500 06003KT P6SM OVC015
FM242000 03004KT P6SM OVC050
FM250500 10003KT P6SM VCSH OVC050

Example: see airport list